createdAt,value
2023-05-21T00:03:07.803Z,13.2
2023-05-21T00:13:10.282Z,13.2
2023-05-21T00:23:12.782Z,13.1
2023-05-21T00:33:14.521Z,13
2023-05-21T00:43:16.310Z,12.9
2023-05-21T00:53:18.411Z,12.9
2023-05-21T01:03:20.701Z,13
2023-05-21T01:13:22.595Z,12.9
2023-05-21T01:23:24.619Z,12.9
2023-05-21T01:33:26.671Z,12.9
2023-05-21T01:53:31.677Z,12.8
2023-05-21T02:03:33.917Z,12.7
2023-05-21T02:13:36.163Z,12.7
2023-05-21T02:23:37.929Z,12.6
2023-05-21T02:33:39.830Z,12.6
2023-05-21T02:43:42.233Z,12.6
2023-05-21T02:53:43.945Z,12.5
2023-05-21T03:03:45.893Z,12.4
2023-05-21T03:13:47.738Z,12.4
2023-05-21T03:23:50.272Z,12.3
2023-05-21T03:33:52.776Z,12.2
2023-05-21T03:43:54.454Z,12.1
2023-05-21T03:53:56.277Z,12.1
2023-05-21T04:03:58.706Z,12.1
2023-05-21T04:14:00.733Z,12.1
2023-05-21T04:24:02.545Z,12.2
2023-05-21T04:34:04.615Z,12.3
2023-05-21T04:44:06.868Z,12.3
2023-05-21T05:04:11.485Z,12.5
2023-05-21T06:04:24.540Z,13.3
2023-05-21T06:24:28.964Z,13.7
2023-05-21T06:44:33.494Z,14
2023-05-21T07:04:37.895Z,14.5
2023-05-21T07:44:45.697Z,15.3
2023-05-21T07:54:48.252Z,15.1
2023-05-21T08:14:52.036Z,16.1
2023-05-21T08:24:54.446Z,16.3
2023-05-21T08:34:56.183Z,16.9
2023-05-21T08:44:58.524Z,16.7
2023-05-21T08:55:00.356Z,17.5
2023-05-21T09:15:04.390Z,18.2
2023-05-21T09:35:09.526Z,18.5
2023-05-21T09:55:14.008Z,18.3
2023-05-21T10:15:18.171Z,18.6
2023-05-21T10:25:20.590Z,18.7
2023-05-21T10:35:22.934Z,19.1
2023-05-21T10:45:25.556Z,19.5
2023-05-21T10:55:27.849Z,19.7
2023-05-21T11:05:30.347Z,19.5
2023-05-21T11:15:32.698Z,19.9
2023-05-21T11:25:34.666Z,20.1
2023-05-21T11:35:37.250Z,20.2
2023-05-21T11:45:39.023Z,20.4
2023-05-21T11:55:41.140Z,20.5
2023-05-21T12:05:42.969Z,20.6
2023-05-21T12:15:44.937Z,21.1
2023-05-21T12:25:46.600Z,21.8
2023-05-21T12:35:48.828Z,21.2
2023-05-21T12:45:50.543Z,21.9
2023-05-21T12:55:52.246Z,22.5
2023-05-21T13:15:56.943Z,21.9
2023-05-21T13:25:58.792Z,22
2023-05-21T13:36:00.797Z,22.5
2023-05-21T13:46:03.127Z,23.2
2023-05-21T13:56:05.124Z,23.2
2023-05-21T14:06:06.891Z,23
2023-05-21T14:16:09.180Z,23.3
2023-05-21T14:26:11.623Z,23.5
2023-05-21T14:36:13.760Z,24.1
2023-05-21T14:46:15.985Z,23.8
2023-05-21T14:56:18.026Z,24
2023-05-21T15:06:19.917Z,24.1
2023-05-21T15:16:21.790Z,24.3
2023-05-21T15:26:23.400Z,24.1
2023-05-21T15:36:25.648Z,24.1
2023-05-21T15:46:27.826Z,24
2023-05-21T15:57:57.661Z,23.9
2023-05-21T16:06:40.795Z,23.8
2023-05-21T16:16:42.703Z,23.9
2023-05-21T16:26:44.643Z,23.5
2023-05-21T16:36:46.370Z,23.2
2023-05-21T16:46:48.834Z,23.3
2023-05-21T16:56:51.401Z,23.2
2023-05-21T17:06:53.316Z,23
2023-05-21T17:16:55.943Z,22.8
2023-05-21T17:26:57.650Z,22.9
2023-05-21T17:36:59.318Z,22.8
2023-05-21T17:47:01.088Z,22.5
2023-05-21T17:57:02.877Z,22.2
2023-05-21T18:07:05.148Z,22.1
2023-05-21T18:17:07.033Z,22
2023-05-21T18:27:09.198Z,21.8
2023-05-21T18:37:11.352Z,21.8
2023-05-21T18:57:15.222Z,21.5
2023-05-21T19:07:17.052Z,21.3
2023-05-21T19:37:23.827Z,21
2023-05-21T19:47:25.996Z,21.2
2023-05-21T20:37:37.735Z,20
2023-05-21T21:57:53.877Z,17.3
2023-05-21T22:17:58.296Z,17.1
2023-05-21T22:38:02.040Z,17.3
2023-05-21T23:18:10.087Z,17
2023-05-21T23:28:12.050Z,16.9
2023-05-21T23:38:13.825Z,16.9
